الصفحة الرئيسية
METAR-TAF:

METAR-TAF

مطار :

مطار شانغي سنغافورة

سنغافورة, سنغافورة

دائرة عرض: 01-22N, خط طول: 103-59E, ارتفاع: 5 متر

مراقبة الطقس الحالي

تاريخ ووقت الإصدار 11ساعات و 57 دقيقة قبل الساعة 05:30UTC
ريح 7 عقدة من الجنوب, الاتجاه يتراوح بين الجنوب الشرقي و الغرب/الجنوب الغربي
درجة الحرارة 31°درجة مئوية
الرطوبة 66%
ضغط 1008 hPa
الرؤية 10 كم أو أكثر
غيوم متفرقة على ارتفاع 2000 قدم
غيوم مفككة على ارتفاع 30000 قدم

METAR: WSSS 210530Z 17007KT 130V240 9999 SCT020 BKN300 31/24 Q1008 NOSIG

زمن: 01:27 (17:27 UTC)

توقعات

تاريخ ووقت الإصدار 12ساعات و 27 دقيقة قبل الساعة 05:00UTC
التوقعات صالحة من21 الساعة 06 UTC إلى 22 الساعة 12 UTC
ريح 10 عقدة من الجنوب
الرؤية 10 كم أو أكثر
غيوم قليلة على ارتفاع 1500 قدم
غيوم متفرقة على ارتفاع 2000 قدم
مؤقت
من 21 الساعة 06 UTC إلى 21 الساعة 07 UTC
الرؤية: 3000 متر
غيوم قليلة على ارتفاع 1200 قدم, مزنة ركامية.
غيوم مفككة على ارتفاع 1500 قدم
عاصفة رعدية, مطر

TAF: WSSS 210500Z 2106/2212 18010KT 9999 FEW015 SCT020 TEMPO 2106/2107 3000 TSRA FEW012CB BKN015

أرصاد الطقس والتوقعات من أكثر من 4000 مطار (تقارير الطقس للمطار METAR والتنبؤ بالطقس بالمطارTAF).

المحطات المتاحة هي النقط الصفراء والحمراء على الخريطة.

حرك المؤشر فوق النقطة لمعرفة اسم المحطة.

ثم انقر لمعرفة أرصاد وتوقعات الطقس.

لتغيير الخارطة: اضغط على الأزرار الخضراء مع رمز الصليب الأسود للتكبير. على الزر الأخضر مع شرطة للتصغير، أو على الأسهم الخضراء للخرائط المجاورة.


METAR-TAF: